Nashville, Tennessee
Traffic Map
Current Weather Conditions
Nashville, Tennessee
Clear
Clear
65°
Feels Like: 65°
Wind Chill: 65° Ceiling: Unl
Heat Index: 65° Visibility: 10mi
Dew Point: 62° Wind: 6mph
Humidity: 90% Direction: 170° (S)
Pressure: 30in Gusts: 0mph
Raw Report DataKBNA 011053Z 17005KT 10SM CLR 18/17 A3000 RMK AO2 SLP150 T01830167 $
Traffic Incident Summary
Active as of:
Severity:
Category:
InformationThere was an issue retrieving the traffic information for this location. Please try a different location or try again shortly.
Advertisements
Track Severe Weather on mobile